createdAt,value
2022-12-27T00:09:18.761Z,6.60
2022-12-27T00:11:46.965Z,7.10
2022-12-27T00:34:08.410Z,6.70
2022-12-27T00:41:34.669Z,6.40
2022-12-27T00:56:29.571Z,6.70
2022-12-27T00:59:00.508Z,6.70
2022-12-27T01:01:32.126Z,6.50
2022-12-27T01:04:00.837Z,6.90
2022-12-27T01:06:33.338Z,6.60
2022-12-27T01:09:03.748Z,6.60
2022-12-27T01:11:32.689Z,6.50
2022-12-27T01:14:03.289Z,6.60
2022-12-27T01:16:33.561Z,6.20
2022-12-27T01:19:02.345Z,6.50
2022-12-27T01:31:29.051Z,6.30
2022-12-27T01:33:59.867Z,6.10
2022-12-27T01:36:30.343Z,6.20
2022-12-27T01:39:00.369Z,6.10
2022-12-27T01:44:43.616Z,6.00
2022-12-27T01:47:39.588Z,6.20
2022-12-27T01:50:37.592Z,6.00
2022-12-27T01:53:15.713Z,5.80
2022-12-27T01:58:38.824Z,5.70
2022-12-27T02:01:14.047Z,5.70
2022-12-27T02:03:51.877Z,5.60
2022-12-27T02:06:22.404Z,5.60
2022-12-27T02:09:01.636Z,5.60
2022-12-27T02:11:56.787Z,5.40
2022-12-27T02:14:43.233Z,5.50
2022-12-27T02:17:28.174Z,5.60
2022-12-27T02:20:12.802Z,5.60
2022-12-27T02:23:39.594Z,5.50
2022-12-27T02:26:35.464Z,5.60
2022-12-27T02:29:27.926Z,5.50
2022-12-27T02:32:06.430Z,5.50
2022-12-27T02:35:09.944Z,5.50
2022-12-27T02:37:47.337Z,5.40
2022-12-27T02:40:35.185Z,5.40
2022-12-27T02:43:21.808Z,5.40
2022-12-27T02:46:38.331Z,5.30
2022-12-27T02:49:53.481Z,5.20
2022-12-27T02:53:06.928Z,5.20
2022-12-27T02:56:16.322Z,5.40
2022-12-27T02:59:20.311Z,4.90
2022-12-27T03:02:42.921Z,5.20
2022-12-27T03:06:13.157Z,5.30
2022-12-27T03:08:51.121Z,5.10
2022-12-27T03:14:33.159Z,5.10
2022-12-27T03:17:10.493Z,5.10
2022-12-27T03:20:07.091Z,5.00
2022-12-27T03:28:32.520Z,5.00
2022-12-27T03:31:29.498Z,4.90
2022-12-27T03:34:25.569Z,4.90
2022-12-27T03:37:13.755Z,4.90
2022-12-27T03:40:18.439Z,4.90
2022-12-27T03:43:11.751Z,4.90
2022-12-27T03:46:12.462Z,4.90
2022-12-27T03:49:00.859Z,5.00
2022-12-27T03:51:37.475Z,5.00
2022-12-27T03:54:26.284Z,4.90
2022-12-27T03:57:02.310Z,5.00
2022-12-27T04:02:01.610Z,5.10
2022-12-27T04:20:50.612Z,5.00
2022-12-27T04:50:52.012Z,4.70
2022-12-27T04:53:39.649Z,4.80
2022-12-27T04:56:08.487Z,4.80
2022-12-27T07:34:05.749Z,5.10
2022-12-27T07:36:39.006Z,5.10
2022-12-27T07:56:30.844Z,5.50
2022-12-27T07:59:01.461Z,5.60
2022-12-27T08:02:00.818Z,5.60
2022-12-27T08:07:13.584Z,5.60
2022-12-27T08:09:45.219Z,5.60
2022-12-27T08:17:25.500Z,5.20
2022-12-27T08:22:24.064Z,5.70
2022-12-27T08:27:25.882Z,5.60
2022-12-27T09:42:46.565Z,6.60
2022-12-27T09:45:05.059Z,6.60
2022-12-27T09:48:16.316Z,7.10
2022-12-27T09:50:54.002Z,6.70
2022-12-27T09:54:15.560Z,6.80
2022-12-27T09:59:39.560Z,7.00
2022-12-27T10:02:25.212Z,6.50
2022-12-27T10:07:57.902Z,7.00
2022-12-27T10:11:31.699Z,6.80
2022-12-27T10:14:44.464Z,7.50
2022-12-27T10:17:53.101Z,7.30
2022-12-27T10:21:02.386Z,7.00
2022-12-27T10:23:34.719Z,7.20
2022-12-27T10:26:08.981Z,7.20
2022-12-27T10:29:06.372Z,7.40
2022-12-27T10:31:37.958Z,7.20
2022-12-27T10:36:39.315Z,7.80
2022-12-27T10:39:32.243Z,8.90
2022-12-27T10:42:41.911Z,7.00
2022-12-27T10:45:37.016Z,7.30
2022-12-27T10:48:23.150Z,7.40
2022-12-27T10:51:01.079Z,7.50
2022-12-27T10:53:38.749Z,7.30
2022-12-27T10:56:30.396Z,7.50
2022-12-27T10:59:16.970Z,7.30
2022-12-27T11:01:47.254Z,7.30
2022-12-27T11:04:24.521Z,7.30
2022-12-27T11:07:17.067Z,7.30
2022-12-27T11:09:51.139Z,7.30
2022-12-27T11:12:32.052Z,7.30
2022-12-27T11:15:13.772Z,7.70
2022-12-27T11:17:51.852Z,7.50
2022-12-27T11:22:59.264Z,7.90
2022-12-27T11:25:29.983Z,7.50
2022-12-27T11:28:25.797Z,7.90
2022-12-27T11:31:08.746Z,7.80
2022-12-27T11:33:53.394Z,7.80
2022-12-27T11:36:30.708Z,7.50
2022-12-27T11:39:00.678Z,8.00
2022-12-27T11:41:51.293Z,7.50
2022-12-27T11:44:31.666Z,7.60
2022-12-27T11:47:26.054Z,7.40
2022-12-27T11:50:10.566Z,7.60
2022-12-27T11:53:35.052Z,7.10
2022-12-27T11:56:28.620Z,7.60
2022-12-27T11:59:20.677Z,7.70
2022-12-27T12:02:28.636Z,7.70
2022-12-27T12:05:08.787Z,7.80
2022-12-27T12:07:55.273Z,7.80
2022-12-27T12:10:50.527Z,7.90
2022-12-27T12:13:44.349Z,8.00
2022-12-27T12:19:08.861Z,8.00
2022-12-27T12:22:11.919Z,8.40
2022-12-27T12:25:01.305Z,8.30
2022-12-27T12:27:48.978Z,8.10
2022-12-27T12:30:33.289Z,8.10
2022-12-27T12:33:25.297Z,8.10
2022-12-27T12:36:37.029Z,8.00
2022-12-27T12:40:07.777Z,8.30
2022-12-27T12:42:55.604Z,8.00
2022-12-27T12:46:07.308Z,8.60
2022-12-27T12:48:50.108Z,8.20
2022-12-27T12:54:12.403Z,7.80
2022-12-27T13:02:29.058Z,7.80
2022-12-27T13:05:25.241Z,8.20
2022-12-27T13:08:24.389Z,8.20
2022-12-27T13:11:35.789Z,8.10
2022-12-27T13:14:32.454Z,8.20
2022-12-27T13:17:19.744Z,8.60
2022-12-27T13:20:14.685Z,8.80
2022-12-27T13:23:16.412Z,8.50
2022-12-27T13:26:05.499Z,8.60
2022-12-27T13:29:03.700Z,8.90
2022-12-27T13:31:52.634Z,8.60
2022-12-27T13:34:46.457Z,8.60
2022-12-27T13:37:39.993Z,9.40
2022-12-27T13:40:35.181Z,8.70
2022-12-27T13:43:51.185Z,8.60
2022-12-27T13:46:53.686Z,8.50
2022-12-27T13:49:36.725Z,8.20
2022-12-27T13:53:00.032Z,8.20
2022-12-27T13:55:49.260Z,8.20
2022-12-27T13:59:07.202Z,7.80
2022-12-27T14:01:55.702Z,8.00
2022-12-27T14:07:53.916Z,7.90
2022-12-27T14:10:58.628Z,7.90
2022-12-27T14:13:40.873Z,7.80
2022-12-27T14:16:26.898Z,7.90
2022-12-27T14:19:15.990Z,8.10
2022-12-27T14:22:41.452Z,7.80
2022-12-27T14:25:39.933Z,7.70
2022-12-27T14:28:24.193Z,7.20
2022-12-27T14:31:56.441Z,8.00
2022-12-27T14:34:27.302Z,7.60
2022-12-27T14:37:16.475Z,7.60
2022-12-27T14:40:18.615Z,7.70
2022-12-27T14:43:13.823Z,7.80
2022-12-27T14:46:24.402Z,7.70
2022-12-27T14:49:19.538Z,7.80
2022-12-27T14:52:27.470Z,7.10
2022-12-27T14:55:41.926Z,7.20
2022-12-27T14:58:37.373Z,7.80
2022-12-27T15:01:50.397Z,7.30
2022-12-27T15:05:14.760Z,7.10
2022-12-27T15:08:04.249Z,7.20
2022-12-27T15:11:00.878Z,7.20
2022-12-27T15:13:58.022Z,7.20
2022-12-27T15:16:59.482Z,6.80
2022-12-27T15:20:03.647Z,7.00
2022-12-27T15:23:02.316Z,6.90
2022-12-27T15:28:42.216Z,7.00
2022-12-27T15:31:38.540Z,7.00
2022-12-27T15:34:34.318Z,6.90
2022-12-27T15:39:34.124Z,6.90
2022-12-27T15:42:49.235Z,6.90
2022-12-27T15:45:29.258Z,6.90
2022-12-27T15:49:03.929Z,6.90
2022-12-27T15:51:58.479Z,6.90
2022-12-27T15:58:27.561Z,6.80
2022-12-27T16:01:30.296Z,7.00
2022-12-27T16:06:35.060Z,6.80
2022-12-27T16:09:24.863Z,6.80
2022-12-27T16:12:06.503Z,6.80
2022-12-27T16:14:44.141Z,6.60
2022-12-27T16:17:55.162Z,6.40
2022-12-27T16:20:24.771Z,6.70
2022-12-27T16:23:06.161Z,6.70
2022-12-27T16:25:42.619Z,6.40
2022-12-27T16:28:27.321Z,6.70
2022-12-27T16:31:02.822Z,6.70
2022-12-27T16:33:38.136Z,6.60
2022-12-27T16:36:35.712Z,6.60
2022-12-27T16:41:56.462Z,6.60
2022-12-27T16:44:28.143Z,6.30
2022-12-27T16:47:37.221Z,6.70
2022-12-27T16:50:26.379Z,6.30
2022-12-27T16:56:00.263Z,6.30
2022-12-27T16:58:28.603Z,6.50
2022-12-27T17:00:59.825Z,6.70
2022-12-27T17:03:49.414Z,6.70
2022-12-27T17:09:09.888Z,6.70
2022-12-27T17:12:01.288Z,6.70
2022-12-27T17:14:35.452Z,6.70
2022-12-27T17:17:23.080Z,6.70
2022-12-27T17:22:20.343Z,6.70
2022-12-27T17:24:51.345Z,7.10
2022-12-27T17:27:41.113Z,7.20
2022-12-27T17:30:22.556Z,6.70
2022-12-27T17:33:24.220Z,6.60
2022-12-27T17:36:44.796Z,6.70
2022-12-27T17:39:18.331Z,6.80
2022-12-27T17:42:24.805Z,6.40
2022-12-27T17:45:11.487Z,7.00
2022-12-27T17:48:15.396Z,6.70
2022-12-27T17:50:45.554Z,7.10
2022-12-27T17:56:31.691Z,6.90
2022-12-27T17:59:27.333Z,7.00
2022-12-27T18:02:14.183Z,6.90
2022-12-27T18:04:57.339Z,6.60
2022-12-27T18:07:31.591Z,6.80
2022-12-27T18:10:08.435Z,6.90
2022-12-27T18:12:41.562Z,6.90
2022-12-27T18:15:16.012Z,7.00
2022-12-27T18:17:57.065Z,7.00
2022-12-27T18:20:29.365Z,7.00
2022-12-27T18:28:32.890Z,6.80
2022-12-27T18:31:27.506Z,6.90
2022-12-27T18:34:04.557Z,7.00
2022-12-27T18:36:45.599Z,7.00
2022-12-27T18:39:44.038Z,6.90
2022-12-27T18:42:33.567Z,6.90
2022-12-27T18:45:23.178Z,6.90
2022-12-27T18:47:54.797Z,6.90
2022-12-27T18:50:34.864Z,6.90
2022-12-27T18:53:27.821Z,6.90
2022-12-27T18:56:07.243Z,6.90
2022-12-27T19:01:38.799Z,6.90
2022-12-27T19:04:17.090Z,6.90
2022-12-27T19:06:56.819Z,6.90
2022-12-27T19:09:42.343Z,6.90
2022-12-27T19:12:37.530Z,7.40
2022-12-27T19:15:28.410Z,6.80
2022-12-27T19:18:09.599Z,6.80
2022-12-27T19:20:38.506Z,6.80
2022-12-27T19:23:26.573Z,6.80
2022-12-27T19:26:32.944Z,6.80
2022-12-27T19:29:09.118Z,6.70
2022-12-27T19:31:42.951Z,6.70
2022-12-27T19:34:17.657Z,6.60
2022-12-27T19:36:48.325Z,6.70
2022-12-27T19:39:27.775Z,6.70
2022-12-27T19:42:01.368Z,8.30
2022-12-27T19:52:22.067Z,6.60
2022-12-27T19:54:52.637Z,6.50
2022-12-27T20:04:52.155Z,6.60
2022-12-27T20:07:24.389Z,6.40
2022-12-27T20:14:49.926Z,6.00
2022-12-27T20:17:19.205Z,6.30
2022-12-27T20:42:15.541Z,6.00
2022-12-27T21:19:31.707Z,5.80
2022-12-27T21:36:53.094Z,5.90
2022-12-27T21:41:50.011Z,6.00
2022-12-27T21:51:45.771Z,6.00
2022-12-27T22:04:23.629Z,6.10
2022-12-27T22:24:29.679Z,6.20
2022-12-27T22:37:00.639Z,6.70
2022-12-27T22:47:25.044Z,6.10
2022-12-27T23:20:31.022Z,6.30
2022-12-27T23:22:59.158Z,6.80
2022-12-27T23:42:46.903Z,6.50
2022-12-27T23:52:48.665Z,6.40
